METAR LSZS 251050Z VRB02KT CAVOK 10/M04 Q1022 RMK J=
Diese Daten sind ohne Gewähr und dürfen nicht für die Flugvorbereitung verwendet werden.
Information contained in this website shall not be used for flight operation purposes.